sensor_id;sensor_type;location;lat;lon;timestamp;temperature;humidity
62476;DHT22;50739;45.670;11.936;2023-04-06T00:02:24;7.51;55.13
62476;DHT22;50739;45.670;11.936;2023-04-06T00:07:26;7.61;55.67
62476;DHT22;50739;45.670;11.936;2023-04-06T00:12:30;7.72;54.40
62476;DHT22;50739;45.670;11.936;2023-04-06T00:17:31;7.49;54.40
62476;DHT22;50739;45.670;11.936;2023-04-06T00:22:33;7.55;55.79
62476;DHT22;50739;45.670;11.936;2023-04-06T00:27:37;7.82;52.48
62476;DHT22;50739;45.670;11.936;2023-04-06T00:32:39;7.87;51.34
62476;DHT22;50739;45.670;11.936;2023-04-06T00:37:41;7.51;52.29
62476;DHT22;50739;45.670;11.936;2023-04-06T00:42:44;7.32;53.59
62476;DHT22;50739;45.670;11.936;2023-04-06T00:47:46;7.21;53.87
62476;DHT22;50739;45.670;11.936;2023-04-06T00:52:48;6.93;54.64
62476;DHT22;50739;45.670;11.936;2023-04-06T00:57:52;6.87;55.42
62476;DHT22;50739;45.670;11.936;2023-04-06T01:02:54;6.69;56.25
62476;DHT22;50739;45.670;11.936;2023-04-06T01:07:56;6.72;55.91
62476;DHT22;50739;45.670;11.936;2023-04-06T01:12:59;6.53;56.46
62476;DHT22;50739;45.670;11.936;2023-04-06T01:18:01;6.31;56.82
62476;DHT22;50739;45.670;11.936;2023-04-06T01:23:06;6.43;56.44
62476;DHT22;50739;45.670;11.936;2023-04-06T01:28:08;6.48;55.45
62476;DHT22;50739;45.670;11.936;2023-04-06T01:33:10;6.42;55.13
62476;DHT22;50739;45.670;11.936;2023-04-06T01:38:13;6.57;54.45
62476;DHT22;50739;45.670;11.936;2023-04-06T01:43:15;6.39;54.71
62476;DHT22;50739;45.670;11.936;2023-04-06T01:48:18;6.38;54.20
62476;DHT22;50739;45.670;11.936;2023-04-06T01:53:21;6.41;54.52
62476;DHT22;50739;45.670;11.936;2023-04-06T01:58:23;6.20;54.68
62476;DHT22;50739;45.670;11.936;2023-04-06T02:03:25;6.15;54.71
62476;DHT22;50739;45.670;11.936;2023-04-06T02:08:29;6.24;54.32
62476;DHT22;50739;45.670;11.936;2023-04-06T02:13:31;6.14;54.69
62476;DHT22;50739;45.670;11.936;2023-04-06T02:18:33;6.13;55.11
62476;DHT22;50739;45.670;11.936;2023-04-06T02:23:36;6.10;55.81
62476;DHT22;50739;45.670;11.936;2023-04-06T02:28:38;6.03;56.39
62476;DHT22;50739;45.670;11.936;2023-04-06T02:33:40;6.11;56.60
62476;DHT22;50739;45.670;11.936;2023-04-06T02:38:43;5.96;56.92
62476;DHT22;50739;45.670;11.936;2023-04-06T02:43:45;5.81;57.11
62476;DHT22;50739;45.670;11.936;2023-04-06T02:48:47;5.96;56.50
62476;DHT22;50739;45.670;11.936;2023-04-06T02:53:51;5.97;56.36
62476;DHT22;50739;45.670;11.936;2023-04-06T02:58:53;6.08;56.87
62476;DHT22;50739;45.670;11.936;2023-04-06T03:03:55;5.81;57.18
62476;DHT22;50739;45.670;11.936;2023-04-06T03:08:58;5.85;57.32
62476;DHT22;50739;45.670;11.936;2023-04-06T03:14:00;5.80;58.54
62476;DHT22;50739;45.670;11.936;2023-04-06T03:19:02;5.78;57.86
62476;DHT22;50739;45.670;11.936;2023-04-06T03:24:06;5.86;57.67
62476;DHT22;50739;45.670;11.936;2023-04-06T03:29:09;5.91;57.76
62476;DHT22;50739;45.670;11.936;2023-04-06T03:34:11;5.96;57.59
62476;DHT22;50739;45.670;11.936;2023-04-06T03:39:14;5.85;58.26
62476;DHT22;50739;45.670;11.936;2023-04-06T03:44:16;5.93;57.85
62476;DHT22;50739;45.670;11.936;2023-04-06T03:49:18;6.14;56.95
62476;DHT22;50739;45.670;11.936;2023-04-06T03:54:21;6.21;56.38
62476;DHT22;50739;45.670;11.936;2023-04-06T03:59:23;6.17;55.88
62476;DHT22;50739;45.670;11.936;2023-04-06T04:04:25;6.01;56.33
62476;DHT22;50739;45.670;11.936;2023-04-06T04:09:28;5.98;56.15
62476;DHT22;50739;45.670;11.936;2023-04-06T04:14:30;5.94;56.13
62476;DHT22;50739;45.670;11.936;2023-04-06T04:19:32;5.98;55.87
62476;DHT22;50739;45.670;11.936;2023-04-06T04:24:35;6.18;55.48
62476;DHT22;50739;45.670;11.936;2023-04-06T04:29:37;6.15;55.60
62476;DHT22;50739;45.670;11.936;2023-04-06T04:34:39;6.07;56.16
62476;DHT22;50739;45.670;11.936;2023-04-06T04:39:42;5.90;56.82
62476;DHT22;50739;45.670;11.936;2023-04-06T04:44:44;5.85;56.91
62476;DHT22;50739;45.670;11.936;2023-04-06T04:49:46;5.89;56.68
62476;DHT22;50739;45.670;11.936;2023-04-06T04:54:49;5.77;57.16
62476;DHT22;50739;45.670;11.936;2023-04-06T04:59:51;5.81;57.23
62476;DHT22;50739;45.670;11.936;2023-04-06T05:04:53;5.73;57.53
62476;DHT22;50739;45.670;11.936;2023-04-06T05:09:57;5.90;56.82
62476;DHT22;50739;45.670;11.936;2023-04-06T05:14:59;5.86;56.67
62476;DHT22;50739;45.670;11.936;2023-04-06T05:20:01;5.73;57.47
62476;DHT22;50739;45.670;11.936;2023-04-06T05:25:05;5.71;57.10
62476;DHT22;50739;45.670;11.936;2023-04-06T05:30:07;5.93;56.15
62476;DHT22;50739;45.670;11.936;2023-04-06T05:35:10;5.90;56.06
62476;DHT22;50739;45.670;11.936;2023-04-06T05:40:13;6.00;55.99
62476;DHT22;50739;45.670;11.936;2023-04-06T05:45:15;6.13;55.46
62476;DHT22;50739;45.670;11.936;2023-04-06T05:50:18;6.08;55.41
62476;DHT22;50739;45.670;11.936;2023-04-06T05:55:22;6.08;55.75
62476;DHT22;50739;45.670;11.936;2023-04-06T06:00:24;6.17;56.02
62476;DHT22;50739;45.670;11.936;2023-04-06T06:05:26;6.42;55.65
62476;DHT22;50739;45.670;11.936;2023-04-06T06:10:29;6.65;54.66
62476;DHT22;50739;45.670;11.936;2023-04-06T06:15:31;6.84;54.12
62476;DHT22;50739;45.670;11.936;2023-04-06T06:20:33;6.90;54.23
62476;DHT22;50739;45.670;11.936;2023-04-06T06:25:36;6.97;53.79
62476;DHT22;50739;45.670;11.936;2023-04-06T06:30:38;7.17;52.16
62476;DHT22;50739;45.670;11.936;2023-04-06T06:35:40;7.31;51.96
62476;DHT22;50739;45.670;11.936;2023-04-06T06:40:45;7.55;49.62
62476;DHT22;50739;45.670;11.936;2023-04-06T06:45:47;7.66;49.13
62476;DHT22;50739;45.670;11.936;2023-04-06T06:50:49;7.76;49.64
62476;DHT22;50739;45.670;11.936;2023-04-06T06:55:53;7.89;49.91
62476;DHT22;50739;45.670;11.936;2023-04-06T07:00:56;8.10;48.83
62476;DHT22;50739;45.670;11.936;2023-04-06T07:05:59;8.11;49.42
62476;DHT22;50739;45.670;11.936;2023-04-06T07:11:02;8.15;50.21
62476;DHT22;50739;45.670;11.936;2023-04-06T07:16:04;8.34;49.12
62476;DHT22;50739;45.670;11.936;2023-04-06T07:21:06;8.46;49.33
62476;DHT22;50739;45.670;11.936;2023-04-06T07:26:09;8.66;48.23
62476;DHT22;50739;45.670;11.936;2023-04-06T07:31:11;8.63;50.15
62476;DHT22;50739;45.670;11.936;2023-04-06T07:36:13;8.79;50.10
62476;DHT22;50739;45.670;11.936;2023-04-06T07:41:17;8.83;49.01
62476;DHT22;50739;45.670;11.936;2023-04-06T07:46:18;9.04;49.08
62476;DHT22;50739;45.670;11.936;2023-04-06T07:51:20;9.17;49.00
62476;DHT22;50739;45.670;11.936;2023-04-06T07:56:24;9.28;48.75
62476;DHT22;50739;45.670;11.936;2023-04-06T08:01:27;9.44;48.17
62476;DHT22;50739;45.670;11.936;2023-04-06T08:06:29;9.46;48.79
62476;DHT22;50739;45.670;11.936;2023-04-06T08:11:33;9.55;49.84
62476;DHT22;50739;45.670;11.936;2023-04-06T08:16:34;9.73;47.87
62476;DHT22;50739;45.670;11.936;2023-04-06T08:21:36;9.46;48.98
62476;DHT22;50739;45.670;11.936;2023-04-06T08:26:39;9.44;48.10
62476;DHT22;50739;45.670;11.936;2023-04-06T08:31:42;9.52;48.85
62476;DHT22;50739;45.670;11.936;2023-04-06T08:36:45;9.59;49.17
62476;DHT22;50739;45.670;11.936;2023-04-06T08:41:49;9.80;48.98
62476;DHT22;50739;45.670;11.936;2023-04-06T08:46:52;9.52;49.41
62476;DHT22;50739;45.670;11.936;2023-04-06T08:51:57;9.71;48.87
62476;DHT22;50739;45.670;11.936;2023-04-06T08:57:02;9.76;48.34
62476;DHT22;50739;45.670;11.936;2023-04-06T09:02:05;9.79;47.20
62476;DHT22;50739;45.670;11.936;2023-04-06T09:07:08;9.48;47.02
62476;DHT22;50739;45.670;11.936;2023-04-06T09:12:22;9.51;49.57
62476;DHT22;50739;45.670;11.936;2023-04-06T09:17:25;10.00;48.29
62476;DHT22;50739;45.670;11.936;2023-04-06T09:22:35;10.27;46.61
62476;DHT22;50739;45.670;11.936;2023-04-06T09:27:40;10.13;45.91
62476;DHT22;50739;45.670;11.936;2023-04-06T09:32:48;10.04;46.61
62476;DHT22;50739;45.670;11.936;2023-04-06T09:37:50;10.09;47.02
62476;DHT22;50739;45.670;11.936;2023-04-06T09:42:54;9.99;46.95
62476;DHT22;50739;45.670;11.936;2023-04-06T09:47:58;10.14;46.76
62476;DHT22;50739;45.670;11.936;2023-04-06T09:53:01;10.47;47.26
62476;DHT22;50739;45.670;11.936;2023-04-06T09:58:06;10.49;46.22
62476;DHT22;50739;45.670;11.936;2023-04-06T10:03:14;10.52;46.00
62476;DHT22;50739;45.670;11.936;2023-04-06T10:08:19;10.66;47.15
62476;DHT22;50739;45.670;11.936;2023-04-06T10:13:23;10.65;45.37
62476;DHT22;50739;45.670;11.936;2023-04-06T10:18:26;10.61;46.47
62476;DHT22;50739;45.670;11.936;2023-04-06T10:23:33;10.56;46.60
62476;DHT22;50739;45.670;11.936;2023-04-06T10:28:37;10.72;47.48
62476;DHT22;50739;45.670;11.936;2023-04-06T10:33:53;10.88;47.06
62476;DHT22;50739;45.670;11.936;2023-04-06T10:38:57;11.16;48.16
62476;DHT22;50739;45.670;11.936;2023-04-06T10:44:04;11.45;45.71
62476;DHT22;50739;45.670;11.936;2023-04-06T10:49:12;11.11;46.93
62476;DHT22;50739;45.670;11.936;2023-04-06T10:54:15;11.37;47.38
62476;DHT22;50739;45.670;11.936;2023-04-06T10:59:22;11.40;48.21
62476;DHT22;50739;45.670;11.936;2023-04-06T11:04:25;11.61;46.83
62476;DHT22;50739;45.670;11.936;2023-04-06T11:09:28;11.50;46.89
62476;DHT22;50739;45.670;11.936;2023-04-06T11:14:33;11.75;45.99
62476;DHT22;50739;45.670;11.936;2023-04-06T11:19:35;11.86;46.09
62476;DHT22;50739;45.670;11.936;2023-04-06T11:24:37;11.79;45.70
62476;DHT22;50739;45.670;11.936;2023-04-06T11:29:40;11.71;46.94
62476;DHT22;50739;45.670;11.936;2023-04-06T11:34:42;11.97;45.75
62476;DHT22;50739;45.670;11.936;2023-04-06T11:39:47;12.09;45.29
62476;DHT22;50739;45.670;11.936;2023-04-06T11:44:54;11.93;46.03
62476;DHT22;50739;45.670;11.936;2023-04-06T11:50:07;12.14;45.57
62476;DHT22;50739;45.670;11.936;2023-04-06T11:55:16;12.19;46.06
62476;DHT22;50739;45.670;11.936;2023-04-06T12:00:21;12.23;45.49
62476;DHT22;50739;45.670;11.936;2023-04-06T12:05:24;12.31;46.17
62476;DHT22;50739;45.670;11.936;2023-04-06T12:10:26;12.51;45.94
62476;DHT22;50739;45.670;11.936;2023-04-06T12:15:30;12.85;46.12
62476;DHT22;50739;45.670;11.936;2023-04-06T12:20:33;13.00;46.11
62476;DHT22;50739;45.670;11.936;2023-04-06T12:25:35;13.34;43.91
62476;DHT22;50739;45.670;11.936;2023-04-06T12:30:38;13.32;45.09
62476;DHT22;50739;45.670;11.936;2023-04-06T12:35:58;13.40;45.46
62476;DHT22;50739;45.670;11.936;2023-04-06T12:41:00;14.06;44.49
62476;DHT22;50739;45.670;11.936;2023-04-06T12:46:04;13.72;44.31
62476;DHT22;50739;45.670;11.936;2023-04-06T12:51:06;14.08;42.62
62476;DHT22;50739;45.670;11.936;2023-04-06T12:56:12;14.13;41.75
62476;DHT22;50739;45.670;11.936;2023-04-06T13:01:16;14.12;43.52
62476;DHT22;50739;45.670;11.936;2023-04-06T13:06:18;14.63;42.96
62476;DHT22;50739;45.670;11.936;2023-04-06T13:11:20;14.80;42.33
62476;DHT22;50739;45.670;11.936;2023-04-06T13:16:25;15.64;41.47
62476;DHT22;50739;45.670;11.936;2023-04-06T13:21:27;15.97;39.09
62476;DHT22;50739;45.670;11.936;2023-04-06T13:26:37;15.59;39.79
62476;DHT22;50739;45.670;11.936;2023-04-06T13:31:40;15.25;39.05
62476;DHT22;50739;45.670;11.936;2023-04-06T13:36:42;15.53;39.21
62476;DHT22;50739;45.670;11.936;2023-04-06T13:47:03;16.23;38.25
62476;DHT22;50739;45.670;11.936;2023-04-06T13:52:06;16.41;36.29
62476;DHT22;50739;45.670;11.936;2023-04-06T13:57:11;16.59;36.16
62476;DHT22;50739;45.670;11.936;2023-04-06T14:02:15;16.26;36.36
62476;DHT22;50739;45.670;11.936;2023-04-06T14:07:16;16.42;35.73
62476;DHT22;50739;45.670;11.936;2023-04-06T14:12:18;16.52;34.92
62476;DHT22;50739;45.670;11.936;2023-04-06T14:17:22;16.49;35.34
62476;DHT22;50739;45.670;11.936;2023-04-06T14:22:26;16.57;36.55
62476;DHT22;50739;45.670;11.936;2023-04-06T14:27:30;16.73;34.72
62476;DHT22;50739;45.670;11.936;2023-04-06T14:32:33;16.59;36.30
62476;DHT22;50739;45.670;11.936;2023-04-06T14:37:36;16.67;34.60
62476;DHT22;50739;45.670;11.936;2023-04-06T14:42:38;16.70;35.11
62476;DHT22;50739;45.670;11.936;2023-04-06T14:47:41;16.90;35.59
62476;DHT22;50739;45.670;11.936;2023-04-06T14:52:43;17.40;34.46
62476;DHT22;50739;45.670;11.936;2023-04-06T14:57:49;17.80;35.60
62476;DHT22;50739;45.670;11.936;2023-04-06T15:02:52;17.96;34.64
62476;DHT22;50739;45.670;11.936;2023-04-06T15:07:57;18.02;34.28
62476;DHT22;50739;45.670;11.936;2023-04-06T15:12:59;18.31;34.35
62476;DHT22;50739;45.670;11.936;2023-04-06T15:18:15;17.89;34.25
62476;DHT22;50739;45.670;11.936;2023-04-06T15:23:17;18.27;35.92
62476;DHT22;50739;45.670;11.936;2023-04-06T15:28:21;18.31;35.23
62476;DHT22;50739;45.670;11.936;2023-04-06T15:33:25;18.20;34.36
62476;DHT22;50739;45.670;11.936;2023-04-06T15:38:27;18.01;34.30
62476;DHT22;50739;45.670;11.936;2023-04-06T15:43:31;18.08;35.35
62476;DHT22;50739;45.670;11.936;2023-04-06T15:48:34;17.65;33.85
62476;DHT22;50739;45.670;11.936;2023-04-06T15:53:36;17.42;34.95
62476;DHT22;50739;45.670;11.936;2023-04-06T15:58:38;17.31;35.62
62476;DHT22;50739;45.670;11.936;2023-04-06T16:03:42;17.28;35.38
62476;DHT22;50739;45.670;11.936;2023-04-06T16:08:44;16.67;35.50
62476;DHT22;50739;45.670;11.936;2023-04-06T16:13:46;16.49;36.93
62476;DHT22;50739;45.670;11.936;2023-04-06T16:18:49;16.85;36.80
62476;DHT22;50739;45.670;11.936;2023-04-06T16:23:51;16.90;36.39
62476;DHT22;50739;45.670;11.936;2023-04-06T16:28:53;16.45;37.89
62476;DHT22;50739;45.670;11.936;2023-04-06T16:33:57;16.01;37.75
62476;DHT22;50739;45.670;11.936;2023-04-06T16:39:00;15.73;39.88
62476;DHT22;50739;45.670;11.936;2023-04-06T16:44:02;15.49;39.61
62476;DHT22;50739;45.670;11.936;2023-04-06T16:49:05;15.23;41.06
62476;DHT22;50739;45.670;11.936;2023-04-06T16:54:08;14.98;40.60
62476;DHT22;50739;45.670;11.936;2023-04-06T16:59:11;14.80;42.28
62476;DHT22;50739;45.670;11.936;2023-04-06T17:04:14;14.75;42.08
62476;DHT22;50739;45.670;11.936;2023-04-06T17:09:16;14.59;47.72
62476;DHT22;50739;45.670;11.936;2023-04-06T17:14:18;14.19;51.59
62476;DHT22;50739;45.670;11.936;2023-04-06T17:19:21;14.08;50.93
62476;DHT22;50739;45.670;11.936;2023-04-06T17:24:24;13.91;52.23
62476;DHT22;50739;45.670;11.936;2023-04-06T17:29:26;13.70;53.50
62476;DHT22;50739;45.670;11.936;2023-04-06T17:34:32;13.71;54.56
62476;DHT22;50739;45.670;11.936;2023-04-06T17:39:34;13.46;54.29
62476;DHT22;50739;45.670;11.936;2023-04-06T17:44:36;13.27;55.88
62476;DHT22;50739;45.670;11.936;2023-04-06T17:49:45;13.16;56.99
62476;DHT22;50739;45.670;11.936;2023-04-06T17:54:48;12.98;57.48
62476;DHT22;50739;45.670;11.936;2023-04-06T17:59:51;12.88;57.88
62476;DHT22;50739;45.670;11.936;2023-04-06T18:04:55;12.75;58.12
62476;DHT22;50739;45.670;11.936;2023-04-06T18:09:58;12.75;58.61
62476;DHT22;50739;45.670;11.936;2023-04-06T18:15:01;12.52;59.28
62476;DHT22;50739;45.670;11.936;2023-04-06T18:20:05;12.48;59.83
62476;DHT22;50739;45.670;11.936;2023-04-06T18:25:07;12.50;59.71
62476;DHT22;50739;45.670;11.936;2023-04-06T18:30:11;12.37;60.00
62476;DHT22;50739;45.670;11.936;2023-04-06T18:35:15;12.27;60.70
62476;DHT22;50739;45.670;11.936;2023-04-06T18:40:29;12.20;60.98
62476;DHT22;50739;45.670;11.936;2023-04-06T18:45:32;12.14;61.18
62476;DHT22;50739;45.670;11.936;2023-04-06T18:50:36;11.96;62.08
62476;DHT22;50739;45.670;11.936;2023-04-06T18:55:37;11.87;61.91
62476;DHT22;50739;45.670;11.936;2023-04-06T19:00:39;11.86;62.66
62476;DHT22;50739;45.670;11.936;2023-04-06T19:05:43;11.67;63.99
62476;DHT22;50739;45.670;11.936;2023-04-06T19:10:44;11.61;63.98
62476;DHT22;50739;45.670;11.936;2023-04-06T19:15:48;11.57;64.47
62476;DHT22;50739;45.670;11.936;2023-04-06T19:20:52;11.48;65.03
62476;DHT22;50739;45.670;11.936;2023-04-06T19:25:54;11.45;65.32
62476;DHT22;50739;45.670;11.936;2023-04-06T19:30:56;11.47;65.65
62476;DHT22;50739;45.670;11.936;2023-04-06T19:36:01;11.52;65.55
62476;DHT22;50739;45.670;11.936;2023-04-06T19:41:03;11.50;65.23
62476;DHT22;50739;45.670;11.936;2023-04-06T19:46:05;11.40;65.82
62476;DHT22;50739;45.670;11.936;2023-04-06T19:51:09;11.34;66.47
62476;DHT22;50739;45.670;11.936;2023-04-06T19:56:12;11.31;65.86
62476;DHT22;50739;45.670;11.936;2023-04-06T20:01:15;11.31;66.08
62476;DHT22;50739;45.670;11.936;2023-04-06T20:06:18;11.21;66.77
62476;DHT22;50739;45.670;11.936;2023-04-06T20:11:20;11.24;65.92
62476;DHT22;50739;45.670;11.936;2023-04-06T20:16:22;11.11;66.03
62476;DHT22;50739;45.670;11.936;2023-04-06T20:21:25;11.09;65.98
62476;DHT22;50739;45.670;11.936;2023-04-06T20:26:27;10.99;66.49
62476;DHT22;50739;45.670;11.936;2023-04-06T20:31:29;10.96;65.66
62476;DHT22;50739;45.670;11.936;2023-04-06T20:36:33;10.86;66.07
62476;DHT22;50739;45.670;11.936;2023-04-06T20:41:35;10.89;65.44
62476;DHT22;50739;45.670;11.936;2023-04-06T20:46:36;10.79;66.28
62476;DHT22;50739;45.670;11.936;2023-04-06T20:51:40;10.89;66.23
62476;DHT22;50739;45.670;11.936;2023-04-06T20:56:42;10.79;66.23
62476;DHT22;50739;45.670;11.936;2023-04-06T21:01:45;10.71;66.29
62476;DHT22;50739;45.670;11.936;2023-04-06T21:06:48;10.71;65.82
62476;DHT22;50739;45.670;11.936;2023-04-06T21:11:50;10.48;66.31
62476;DHT22;50739;45.670;11.936;2023-04-06T21:16:52;10.54;66.29
62476;DHT22;50739;45.670;11.936;2023-04-06T21:21:56;10.42;66.64
62476;DHT22;50739;45.670;11.936;2023-04-06T21:26:58;10.41;66.36
62476;DHT22;50739;45.670;11.936;2023-04-06T22:02:31;10.16;68.41
62476;DHT22;50739;45.670;11.936;2023-04-06T22:07:33;9.99;68.27
62476;DHT22;50739;45.670;11.936;2023-04-06T22:12:35;10.10;67.38
62476;DHT22;50739;45.670;11.936;2023-04-06T22:17:38;9.96;68.20
62476;DHT22;50739;45.670;11.936;2023-04-06T22:22:40;9.82;68.05
62476;DHT22;50739;45.670;11.936;2023-04-06T22:27:42;9.86;68.17
62476;DHT22;50739;45.670;11.936;2023-04-06T22:32:45;9.83;67.64
62476;DHT22;50739;45.670;11.936;2023-04-06T22:37:47;9.89;68.34
62476;DHT22;50739;45.670;11.936;2023-04-06T22:42:49;9.66;69.17
62476;DHT22;50739;45.670;11.936;2023-04-06T22:47:52;9.59;69.41
62476;DHT22;50739;45.670;11.936;2023-04-06T22:52:54;9.56;68.52
62476;DHT22;50739;45.670;11.936;2023-04-06T22:57:55;9.42;68.24
62476;DHT22;50739;45.670;11.936;2023-04-06T23:02:59;9.48;67.91
62476;DHT22;50739;45.670;11.936;2023-04-06T23:08:00;9.31;68.30
62476;DHT22;50739;45.670;11.936;2023-04-06T23:13:02;9.51;67.64
62476;DHT22;50739;45.670;11.936;2023-04-06T23:18:05;9.36;68.08
62476;DHT22;50739;45.670;11.936;2023-04-06T23:23:07;9.39;67.92
62476;DHT22;50739;45.670;11.936;2023-04-06T23:28:09;9.35;67.27
62476;DHT22;50739;45.670;11.936;2023-04-06T23:33:13;9.32;67.53
62476;DHT22;50739;45.670;11.936;2023-04-06T23:38:14;9.32;67.41
62476;DHT22;50739;45.670;11.936;2023-04-06T23:43:16;9.18;68.04
62476;DHT22;50739;45.670;11.936;2023-04-06T23:48:19;8.99;68.71
62476;DHT22;50739;45.670;11.936;2023-04-06T23:53:21;8.93;68.52
62476;DHT22;50739;45.670;11.936;2023-04-06T23:58:23;9.03;67.64
